createdAt,value
2019-03-27T00:00:37.944Z,0.00
2019-03-27T00:01:38.078Z,0.00
2019-03-27T00:02:37.909Z,0.00
2019-03-27T00:03:38.030Z,0.00
2019-03-27T00:04:39.437Z,0.00
2019-03-27T00:05:37.950Z,0.00
2019-03-27T00:06:38.629Z,0.00
2019-03-27T00:07:37.933Z,0.00
2019-03-27T00:08:37.952Z,0.00
2019-03-27T00:09:38.037Z,0.00
2019-03-27T00:10:37.894Z,0.00
2019-03-27T00:11:38.989Z,0.00
2019-03-27T00:12:37.850Z,0.00
2019-03-27T00:13:37.815Z,0.00
2019-03-27T00:14:37.804Z,0.00
2019-03-27T00:15:37.833Z,0.00
2019-03-27T00:16:37.874Z,0.00
2019-03-27T00:17:37.819Z,0.00
2019-03-27T00:18:37.921Z,0.00
2019-03-27T00:19:37.736Z,0.00
2019-03-27T00:20:37.758Z,0.00
2019-03-27T00:21:37.774Z,0.00
2019-03-27T00:22:37.768Z,0.00
2019-03-27T00:23:37.746Z,0.00
2019-03-27T00:24:37.718Z,0.00
2019-03-27T00:25:37.774Z,0.00
2019-03-27T00:26:37.798Z,0.00
2019-03-27T00:27:37.789Z,0.00
2019-03-27T00:28:37.704Z,0.00
2019-03-27T00:29:37.767Z,0.00
2019-03-27T00:30:37.683Z,0.00
2019-03-27T00:31:37.687Z,0.00
2019-03-27T00:32:37.626Z,0.00
2019-03-27T00:33:37.582Z,0.00
2019-03-27T00:34:37.593Z,0.00
2019-03-27T00:35:37.570Z,0.00
2019-03-27T00:36:37.709Z,0.00
2019-03-27T00:37:37.659Z,0.00
2019-03-27T00:38:37.554Z,0.00
2019-03-27T00:39:37.538Z,0.00
2019-03-27T00:40:37.524Z,0.00
2019-03-27T00:41:37.525Z,0.00
2019-03-27T00:42:37.535Z,0.00
2019-03-27T00:43:37.514Z,0.00
2019-03-27T00:44:37.524Z,0.00
2019-03-27T00:45:37.483Z,0.00
2019-03-27T00:46:37.543Z,0.00
2019-03-27T00:47:37.471Z,0.00
2019-03-27T00:48:37.476Z,0.00
2019-03-27T00:49:37.514Z,0.00
2019-03-27T00:50:37.419Z,0.00
2019-03-27T00:51:37.452Z,0.00
2019-03-27T00:52:37.418Z,0.00
2019-03-27T00:53:37.447Z,0.00
2019-03-27T00:54:37.403Z,0.00
2019-03-27T00:55:37.374Z,0.00
2019-03-27T00:56:37.393Z,0.00
2019-03-27T00:57:37.436Z,0.00
2019-03-27T00:58:37.370Z,0.00
2019-03-27T00:59:37.400Z,0.00
2019-03-27T01:00:37.353Z,0.00
2019-03-27T01:01:37.335Z,0.00
2019-03-27T01:02:37.337Z,0.00
2019-03-27T01:03:37.291Z,0.00
2019-03-27T01:04:37.308Z,0.00
2019-03-27T01:05:38.121Z,0.00
2019-03-27T01:06:37.305Z,0.00
2019-03-27T01:07:37.324Z,0.00
2019-03-27T01:08:37.303Z,0.00
2019-03-27T01:09:37.214Z,0.00
2019-03-27T01:10:37.284Z,0.00
2019-03-27T01:11:38.286Z,0.00
2019-03-27T01:12:37.346Z,0.00
2019-03-27T01:13:37.337Z,0.00
2019-03-27T01:14:37.227Z,0.00
2019-03-27T01:15:40.140Z,0.00
2019-03-27T01:16:37.233Z,0.00
2019-03-27T01:17:37.212Z,0.00
2019-03-27T01:18:37.145Z,0.00
2019-03-27T01:19:37.171Z,0.00
2019-03-27T01:20:37.166Z,0.00
2019-03-27T01:21:37.113Z,0.00
2019-03-27T01:22:37.168Z,0.00
2019-03-27T01:23:37.102Z,0.00
2019-03-27T01:24:37.077Z,0.00
2019-03-27T01:25:37.119Z,0.00
2019-03-27T01:26:37.101Z,0.00
2019-03-27T01:27:37.057Z,0.00
2019-03-27T01:28:37.028Z,0.00
2019-03-27T01:29:37.007Z,0.00
2019-03-27T01:30:36.993Z,0.00
2019-03-27T01:31:36.988Z,0.00
2019-03-27T01:32:36.978Z,0.00
2019-03-27T01:33:36.973Z,0.00
2019-03-27T01:34:36.985Z,0.00
2019-03-27T01:35:36.956Z,0.00
2019-03-27T01:36:36.960Z,0.00
2019-03-27T01:37:36.984Z,0.00
2019-03-27T01:38:36.934Z,0.00
2019-03-27T01:39:36.896Z,0.00
2019-03-27T01:40:36.932Z,0.00
2019-03-27T01:41:36.903Z,0.00
2019-03-27T01:42:36.884Z,0.00
2019-03-27T01:43:36.890Z,0.00
2019-03-27T01:44:36.863Z,0.00
2019-03-27T01:45:36.877Z,0.00
2019-03-27T01:46:36.842Z,0.00
2019-03-27T01:47:36.871Z,0.00
2019-03-27T01:48:36.842Z,0.00
2019-03-27T01:49:36.838Z,0.00
2019-03-27T01:50:36.850Z,0.00
2019-03-27T01:51:36.808Z,0.00
2019-03-27T01:52:36.791Z,0.00
2019-03-27T01:53:36.832Z,0.00
2019-03-27T01:54:36.765Z,0.00
2019-03-27T01:55:36.764Z,0.00
2019-03-27T01:56:36.749Z,0.00
2019-03-27T01:57:36.733Z,0.00
2019-03-27T01:58:36.742Z,0.00
2019-03-27T01:59:36.731Z,0.00
2019-03-27T02:00:36.704Z,0.00
2019-03-27T02:01:36.736Z,0.00
2019-03-27T02:02:36.691Z,0.00
2019-03-27T02:03:36.668Z,0.00
2019-03-27T02:04:36.698Z,0.00
2019-03-27T02:05:36.656Z,0.00
2019-03-27T02:06:36.683Z,0.00
2019-03-27T02:07:36.642Z,0.00
2019-03-27T02:08:36.643Z,0.00
2019-03-27T02:09:36.666Z,0.00
2019-03-27T02:10:36.637Z,0.00
2019-03-27T02:11:36.669Z,0.00
2019-03-27T02:12:36.610Z,0.00
2019-03-27T02:13:36.587Z,0.00
2019-03-27T02:14:36.634Z,0.00
2019-03-27T02:15:36.538Z,0.00
2019-03-27T02:16:36.555Z,0.00
2019-03-27T02:17:36.550Z,0.00
2019-03-27T02:18:36.549Z,0.00
2019-03-27T02:19:36.556Z,0.00
2019-03-27T02:20:36.503Z,0.00
2019-03-27T02:21:36.480Z,0.00
2019-03-27T02:22:36.514Z,0.00
2019-03-27T02:23:36.466Z,0.00
2019-03-27T02:24:36.458Z,0.00
2019-03-27T02:25:36.469Z,0.00
2019-03-27T02:26:36.447Z,0.00
2019-03-27T02:27:36.429Z,0.00
2019-03-27T02:28:36.416Z,0.00
2019-03-27T02:29:36.422Z,0.00
2019-03-27T02:30:36.412Z,0.00
2019-03-27T02:31:36.419Z,0.00
2019-03-27T02:32:36.384Z,0.00
2019-03-27T02:33:36.388Z,0.00
2019-03-27T02:34:36.372Z,0.00
2019-03-27T02:35:36.376Z,0.00
2019-03-27T02:36:36.372Z,0.00
2019-03-27T02:37:36.370Z,0.00
2019-03-27T02:38:36.315Z,0.00
2019-03-27T02:39:36.358Z,0.00
2019-03-27T02:40:36.282Z,0.00
2019-03-27T02:41:36.288Z,0.00
2019-03-27T02:42:36.287Z,0.00
2019-03-27T02:43:36.263Z,0.00
2019-03-27T02:44:37.219Z,0.00
2019-03-27T02:45:36.227Z,0.00
2019-03-27T02:46:36.231Z,0.00
2019-03-27T02:47:36.237Z,0.00
2019-03-27T02:48:36.193Z,0.00
2019-03-27T02:49:36.228Z,0.00
2019-03-27T02:50:36.172Z,0.00
2019-03-27T02:51:36.166Z,0.00
2019-03-27T02:52:36.165Z,0.00
2019-03-27T02:53:36.176Z,0.00
2019-03-27T02:54:36.118Z,0.00
2019-03-27T02:55:36.125Z,0.00
2019-03-27T02:56:36.111Z,0.00
2019-03-27T02:57:36.095Z,0.00
2019-03-27T02:58:36.101Z,0.00
2019-03-27T02:59:36.090Z,0.00
2019-03-27T03:00:36.101Z,0.00
2019-03-27T03:01:36.059Z,0.00
2019-03-27T03:02:36.068Z,0.00
2019-03-27T03:03:36.047Z,0.00
2019-03-27T03:04:36.039Z,0.00
2019-03-27T03:05:36.054Z,0.00
2019-03-27T03:06:36.011Z,0.00
2019-03-27T03:07:36.034Z,0.00
2019-03-27T03:08:36.003Z,0.00
2019-03-27T03:09:35.984Z,0.00
2019-03-27T03:10:35.987Z,0.00
2019-03-27T03:11:35.973Z,0.00
2019-03-27T03:12:35.987Z,0.00
2019-03-27T03:13:35.938Z,0.00
2019-03-27T03:14:35.915Z,0.00
2019-03-27T03:15:35.939Z,0.00
2019-03-27T03:16:42.588Z,0.00
2019-03-27T03:17:36.930Z,0.00
2019-03-27T03:18:35.906Z,0.00
2019-03-27T03:19:35.865Z,0.00
2019-03-27T03:20:35.889Z,0.00
2019-03-27T03:21:35.859Z,0.00
2019-03-27T03:22:35.853Z,0.00
2019-03-27T03:23:35.848Z,0.00
2019-03-27T03:24:35.862Z,0.00
2019-03-27T03:25:35.812Z,0.00
2019-03-27T03:26:35.807Z,0.00
2019-03-27T03:27:35.809Z,0.00
2019-03-27T03:28:35.795Z,0.00
2019-03-27T03:29:35.794Z,0.00
2019-03-27T03:30:35.746Z,0.00
2019-03-27T03:31:35.747Z,0.00
2019-03-27T03:32:35.735Z,0.00
2019-03-27T03:33:35.745Z,0.00
2019-03-27T03:34:35.739Z,0.00
2019-03-27T03:35:35.721Z,0.00
2019-03-27T03:36:35.711Z,0.00
2019-03-27T03:37:35.685Z,0.00
2019-03-27T03:38:35.769Z,0.00
2019-03-27T03:39:35.678Z,0.00
2019-03-27T03:40:35.674Z,0.00
2019-03-27T03:41:35.662Z,0.00
2019-03-27T03:42:35.781Z,0.00
2019-03-27T03:43:35.681Z,0.00
2019-03-27T03:44:35.662Z,0.00
2019-03-27T03:45:35.646Z,0.00
2019-03-27T03:46:35.617Z,0.00
2019-03-27T03:47:35.584Z,0.00
2019-03-27T03:48:35.591Z,0.00
2019-03-27T03:49:35.575Z,0.00
2019-03-27T03:50:35.578Z,0.00
2019-03-27T03:51:35.565Z,0.00
2019-03-27T03:52:35.582Z,0.00
2019-03-27T03:53:35.521Z,0.00
2019-03-27T03:54:35.545Z,0.00
2019-03-27T03:55:35.489Z,0.00
2019-03-27T03:56:35.511Z,0.00
2019-03-27T03:57:35.485Z,0.00
2019-03-27T03:58:35.481Z,0.00
2019-03-27T03:59:35.762Z,0.00
2019-03-27T04:00:35.481Z,0.00
2019-03-27T04:01:35.502Z,0.00
2019-03-27T04:02:35.440Z,0.00
2019-03-27T04:03:35.475Z,0.00
2019-03-27T04:04:36.249Z,0.00
2019-03-27T04:05:35.421Z,0.00
2019-03-27T04:06:35.393Z,0.00
2019-03-27T04:07:35.374Z,0.00
2019-03-27T04:08:35.379Z,0.00
2019-03-27T04:09:35.384Z,0.00
2019-03-27T04:10:35.379Z,0.00
2019-03-27T04:11:35.425Z,0.00
2019-03-27T04:12:35.343Z,0.00
2019-03-27T04:13:35.345Z,0.00
2019-03-27T04:14:35.327Z,0.00
2019-03-27T04:15:35.299Z,0.00
2019-03-27T04:16:35.274Z,0.00
2019-03-27T04:17:35.264Z,0.00
2019-03-27T04:18:35.274Z,0.00
2019-03-27T04:19:35.285Z,0.00
2019-03-27T04:20:35.249Z,0.00
2019-03-27T04:21:35.258Z,0.00
2019-03-27T04:22:35.229Z,0.00
2019-03-27T04:23:35.767Z,0.00
2019-03-27T04:24:35.189Z,0.00
2019-03-27T04:26:00.376Z,4.00
2019-03-27T04:26:36.184Z,4.00
2019-03-27T04:27:35.214Z,0.00
2019-03-27T04:28:35.162Z,0.00
2019-03-27T04:29:35.141Z,4.00
2019-03-27T04:30:35.801Z,0.00
2019-03-27T04:31:35.124Z,4.00
2019-03-27T04:32:35.108Z,4.00
2019-03-27T04:33:35.111Z,4.00
2019-03-27T04:34:35.114Z,4.00
2019-03-27T04:35:35.086Z,4.00
2019-03-27T04:36:35.403Z,4.00
2019-03-27T04:37:35.767Z,8.00
2019-03-27T04:38:35.060Z,12.00
2019-03-27T04:39:35.081Z,12.00
2019-03-27T04:40:35.023Z,12.00
2019-03-27T04:41:35.053Z,16.00
2019-03-27T04:42:35.003Z,16.00
2019-03-27T04:43:35.016Z,16.00
2019-03-27T04:44:34.992Z,24.00
2019-03-27T04:45:34.958Z,24.00
2019-03-27T04:46:35.106Z,28.00
2019-03-27T04:47:35.281Z,32.00
2019-03-27T04:48:34.940Z,40.00
2019-03-27T04:49:34.958Z,48.00
2019-03-27T04:50:34.927Z,60.00
2019-03-27T04:51:34.928Z,72.00
2019-03-27T04:52:34.969Z,76.00
2019-03-27T04:53:34.941Z,76.00
2019-03-27T04:54:34.880Z,76.00
2019-03-27T04:55:34.870Z,92.00
2019-03-27T04:56:34.873Z,120.00
2019-03-27T04:57:34.875Z,144.00
2019-03-27T04:58:34.875Z,156.00
2019-03-27T04:59:34.837Z,168.00
2019-03-27T05:00:34.815Z,180.00
2019-03-27T05:01:34.815Z,196.00
2019-03-27T05:02:34.820Z,208.00
2019-03-27T05:03:34.819Z,236.00
2019-03-27T05:04:34.825Z,248.00
2019-03-27T05:05:34.764Z,260.00
2019-03-27T05:06:34.765Z,252.00
2019-03-27T05:07:34.733Z,252.00
2019-03-27T05:08:34.758Z,268.00
2019-03-27T05:09:34.753Z,288.00
2019-03-27T05:10:34.757Z,320.00
2019-03-27T05:11:34.691Z,320.00
2019-03-27T05:12:34.705Z,316.00
2019-03-27T05:13:34.698Z,340.00
2019-03-27T05:14:34.683Z,368.00
2019-03-27T05:15:34.681Z,388.00
2019-03-27T05:16:34.758Z,408.00
2019-03-27T05:17:45.142Z,440.00
2019-03-27T05:18:35.627Z,440.00
2019-03-27T05:19:34.617Z,460.00
2019-03-27T05:20:34.726Z,460.00
2019-03-27T05:21:34.674Z,396.00
2019-03-27T05:22:34.594Z,392.00
2019-03-27T05:23:34.599Z,400.00
2019-03-27T05:24:34.605Z,396.00
2019-03-27T05:25:34.562Z,372.00
2019-03-27T05:26:34.659Z,400.00
2019-03-27T05:27:36.242Z,388.00
2019-03-27T05:28:34.564Z,416.00
2019-03-27T05:29:34.529Z,448.00
2019-03-27T05:30:34.521Z,536.00
2019-03-27T05:31:34.514Z,556.00
2019-03-27T05:32:34.548Z,568.00
2019-03-27T05:33:34.462Z,560.00
2019-03-27T05:34:34.535Z,592.00
2019-03-27T05:35:34.455Z,612.00
2019-03-27T05:36:34.518Z,712.00
2019-03-27T05:37:34.442Z,636.00
2019-03-27T05:38:34.462Z,556.00
2019-03-27T05:39:34.518Z,548.00
2019-03-27T05:40:34.395Z,540.00
2019-03-27T05:41:35.171Z,592.00
2019-03-27T05:42:34.423Z,620.00
2019-03-27T05:43:34.375Z,640.00
2019-03-27T05:44:34.429Z,700.00
2019-03-27T05:45:34.350Z,700.00
2019-03-27T05:46:34.337Z,736.00
2019-03-27T05:47:34.350Z,784.00
2019-03-27T05:48:34.367Z,836.00
2019-03-27T05:49:34.278Z,852.00
2019-03-27T05:50:34.331Z,880.00
2019-03-27T05:51:34.292Z,812.00
2019-03-27T05:52:34.293Z,844.00
2019-03-27T05:53:34.285Z,828.00
2019-03-27T05:54:35.195Z,844.00
2019-03-27T05:55:34.276Z,964.00
2019-03-27T05:56:34.236Z,1068.00
2019-03-27T05:57:35.171Z,1172.00
2019-03-27T05:58:35.691Z,1128.00
2019-03-27T05:59:34.318Z,1200.00
2019-03-27T06:00:34.529Z,1252.00
2019-03-27T06:01:34.854Z,1340.00
2019-03-27T06:02:34.188Z,1332.00
2019-03-27T06:03:34.145Z,1428.00
2019-03-27T06:04:34.163Z,1400.00
2019-03-27T06:05:34.147Z,1504.00
2019-03-27T06:06:34.165Z,1532.00
2019-03-27T06:07:34.126Z,1612.00
2019-03-27T06:08:34.215Z,1540.00
2019-03-27T06:09:34.091Z,1804.00
2019-03-27T06:10:34.153Z,1704.00
2019-03-27T06:11:35.750Z,1660.00
2019-03-27T06:12:34.306Z,1640.00
2019-03-27T06:13:34.401Z,1792.00
2019-03-27T06:14:34.195Z,1740.00
2019-03-27T06:15:34.028Z,1724.00
2019-03-27T06:16:34.027Z,1744.00
2019-03-27T06:17:34.002Z,1744.00
2019-03-27T06:18:34.008Z,1724.00
2019-03-27T06:19:33.960Z,1700.00
2019-03-27T06:20:33.980Z,1640.00
2019-03-27T06:21:34.042Z,1880.00
2019-03-27T06:22:34.049Z,2064.00
2019-03-27T06:23:33.953Z,2180.00
2019-03-27T06:24:33.940Z,2124.00
2019-03-27T06:25:33.937Z,2540.00
2019-03-27T06:26:34.048Z,2532.00
2019-03-27T06:27:33.920Z,2832.00
2019-03-27T06:28:33.918Z,2524.00
2019-03-27T06:29:33.894Z,2568.00
2019-03-27T06:30:33.880Z,2392.00
2019-03-27T06:31:33.865Z,2784.00
2019-03-27T06:32:33.848Z,2904.00
2019-03-27T06:33:33.848Z,2964.00
2019-03-27T06:34:33.857Z,2904.00
2019-03-27T06:35:33.824Z,2892.00
2019-03-27T06:36:33.961Z,2876.00
2019-03-27T06:37:33.812Z,3116.00
2019-03-27T06:38:33.828Z,3384.00
2019-03-27T06:39:33.797Z,4320.00
2019-03-27T06:40:33.840Z,5548.00
2019-03-27T06:41:33.756Z,6032.00
2019-03-27T06:42:33.752Z,6052.00
2019-03-27T06:43:33.786Z,5876.00
2019-03-27T06:44:33.754Z,5360.00
2019-03-27T06:45:33.775Z,4440.00
2019-03-27T06:46:33.744Z,3860.00
2019-03-27T06:47:33.738Z,3532.00
2019-03-27T06:48:33.689Z,3656.00
2019-03-27T06:49:33.729Z,3772.00
2019-03-27T06:50:33.698Z,4044.00
2019-03-27T06:51:40.097Z,3920.00
2019-03-27T06:52:34.650Z,3540.00
2019-03-27T06:53:33.633Z,3148.00
2019-03-27T06:54:33.668Z,3076.00
2019-03-27T06:55:33.746Z,2888.00
2019-03-27T06:56:33.600Z,2376.00
2019-03-27T06:57:33.584Z,2568.00
2019-03-27T06:58:33.595Z,2892.00
2019-03-27T06:59:33.562Z,3036.00
2019-03-27T07:00:33.546Z,3472.00
2019-03-27T07:01:33.552Z,3872.00
2019-03-27T07:02:33.541Z,4256.00
2019-03-27T07:03:33.525Z,4264.00
2019-03-27T07:04:33.526Z,4304.00
2019-03-27T07:05:33.530Z,4604.00
2019-03-27T07:06:33.529Z,4412.00
2019-03-27T07:07:33.466Z,4520.00
2019-03-27T07:08:33.502Z,4784.00
2019-03-27T07:09:33.495Z,4752.00
2019-03-27T07:10:33.585Z,4940.00
2019-03-27T07:11:33.493Z,5132.00
2019-03-27T07:12:33.422Z,5284.00
2019-03-27T07:13:33.422Z,5276.00
2019-03-27T07:14:33.388Z,5284.00
2019-03-27T07:15:35.709Z,5304.00
2019-03-27T07:16:33.369Z,5296.00
2019-03-27T07:17:33.392Z,5072.00
2019-03-27T07:18:39.892Z,4932.00
2019-03-27T07:19:34.349Z,4948.00
2019-03-27T07:20:33.320Z,4892.00
2019-03-27T07:21:33.320Z,4900.00
2019-03-27T07:22:33.318Z,5004.00
2019-03-27T07:23:33.303Z,5212.00
2019-03-27T07:24:33.286Z,5580.00
2019-03-27T07:25:33.263Z,5956.00
2019-03-27T07:26:33.297Z,6248.00
2019-03-27T07:27:33.282Z,6320.00
2019-03-27T07:28:33.283Z,6352.00
2019-03-27T07:29:33.265Z,6212.00
2019-03-27T07:30:33.223Z,6020.00
2019-03-27T07:31:33.230Z,5836.00
2019-03-27T07:32:33.216Z,5788.00
2019-03-27T07:33:33.207Z,5880.00
2019-03-27T07:34:33.197Z,5860.00
2019-03-27T07:35:33.186Z,5852.00
2019-03-27T07:36:33.169Z,5820.00
2019-03-27T07:37:33.155Z,5792.00
2019-03-27T07:38:33.148Z,5684.00
2019-03-27T07:39:33.381Z,5620.00
2019-03-27T07:40:33.165Z,5632.00
2019-03-27T07:41:33.127Z,5576.00
2019-03-27T07:42:33.101Z,5592.00
2019-03-27T07:43:33.090Z,5624.00
2019-03-27T07:44:33.104Z,5600.00
2019-03-27T07:45:33.087Z,5048.00
2019-03-27T07:46:33.075Z,5004.00
2019-03-27T07:47:33.077Z,4988.00
2019-03-27T07:48:33.060Z,4884.00
2019-03-27T07:49:33.024Z,4752.00
2019-03-27T07:50:33.017Z,4900.00
2019-03-27T07:51:33.041Z,4852.00
2019-03-27T07:52:33.000Z,4880.00
2019-03-27T07:53:32.992Z,5304.00
2019-03-27T07:54:33.057Z,5444.00
2019-03-27T07:55:32.966Z,5684.00
2019-03-27T07:56:33.040Z,6292.00
2019-03-27T07:57:32.993Z,6636.00
2019-03-27T07:58:32.948Z,6816.00
2019-03-27T07:59:32.991Z,6624.00
2019-03-27T08:00:32.945Z,6764.00
2019-03-27T08:01:32.920Z,7244.00
2019-03-27T08:02:32.913Z,7476.00
2019-03-27T08:03:32.935Z,7584.00
2019-03-27T08:04:32.866Z,7648.00
2019-03-27T08:05:32.886Z,7248.00
2019-03-27T08:06:32.857Z,6640.00
2019-03-27T08:07:32.852Z,6088.00
2019-03-27T08:08:32.874Z,5680.00
2019-03-27T08:09:32.821Z,5308.00
2019-03-27T08:10:32.815Z,5260.00
2019-03-27T08:11:32.856Z,4764.00
2019-03-27T08:12:32.775Z,4240.00
2019-03-27T08:13:32.773Z,4444.00
2019-03-27T08:14:32.789Z,4424.00
2019-03-27T08:15:32.755Z,4240.00
2019-03-27T08:16:32.777Z,3764.00
2019-03-27T08:17:32.785Z,4796.00
2019-03-27T08:18:32.778Z,5548.00
2019-03-27T08:19:32.761Z,4568.00
2019-03-27T08:20:32.746Z,5204.00
2019-03-27T08:21:32.726Z,6124.00
2019-03-27T08:22:32.795Z,4972.00
2019-03-27T08:23:32.677Z,4896.00
2019-03-27T08:24:32.737Z,6004.00
2019-03-27T08:25:32.678Z,5956.00
2019-03-27T08:26:32.657Z,6276.00
2019-03-27T08:27:32.632Z,6312.00
2019-03-27T08:28:32.644Z,6620.00
2019-03-27T08:29:32.612Z,6708.00
2019-03-27T08:30:32.686Z,6860.00
2019-03-27T08:31:32.635Z,6872.00
2019-03-27T08:32:32.588Z,7256.00
2019-03-27T08:33:32.591Z,7112.00
2019-03-27T08:34:32.612Z,7564.00
2019-03-27T08:35:32.567Z,7400.00
2019-03-27T08:36:32.611Z,7468.00
2019-03-27T08:37:32.553Z,8652.00
2019-03-27T08:38:32.522Z,8164.00
2019-03-27T08:39:32.499Z,6920.00
2019-03-27T08:40:32.512Z,6460.00
2019-03-27T08:41:32.503Z,7052.00
2019-03-27T08:42:32.482Z,5696.00
2019-03-27T08:43:32.473Z,5544.00
2019-03-27T08:44:32.480Z,6544.00
2019-03-27T08:45:32.458Z,7652.00
2019-03-27T08:46:32.504Z,6748.00
2019-03-27T08:47:32.446Z,6340.00
2019-03-27T08:48:32.427Z,5748.00
2019-03-27T08:49:32.462Z,4760.00
2019-03-27T08:50:32.401Z,6528.00
2019-03-27T08:51:32.374Z,6476.00
2019-03-27T08:52:32.458Z,4876.00
2019-03-27T08:53:32.367Z,5692.00
2019-03-27T08:54:32.356Z,7896.00
2019-03-27T08:55:32.398Z,8444.00
2019-03-27T08:56:32.345Z,9260.00
2019-03-27T08:57:32.381Z,8932.00
2019-03-27T08:58:32.327Z,9500.00
2019-03-27T08:59:32.319Z,10028.00
2019-03-27T09:00:32.345Z,9104.00
2019-03-27T09:01:32.311Z,10036.00
2019-03-27T09:02:33.206Z,10956.00
2019-03-27T09:03:32.314Z,9664.00
2019-03-27T09:04:32.301Z,10984.00
2019-03-27T09:05:32.256Z,10812.00
2019-03-27T09:06:33.876Z,11416.00
2019-03-27T09:07:32.222Z,11496.00
2019-03-27T09:08:32.271Z,12636.00
2019-03-27T09:09:32.215Z,13260.00
2019-03-27T09:10:32.230Z,12172.00
2019-03-27T09:11:32.207Z,11780.00
2019-03-27T09:12:32.200Z,11672.00
2019-03-27T09:13:32.303Z,12400.00
2019-03-27T09:14:32.241Z,12072.00
2019-03-27T09:15:32.211Z,10944.00
2019-03-27T09:16:32.187Z,9352.00
2019-03-27T09:17:32.130Z,11304.00
2019-03-27T09:18:32.106Z,11424.00
2019-03-27T09:19:35.953Z,9768.00
2019-03-27T09:20:32.096Z,9500.00
2019-03-27T09:21:32.070Z,9376.00
2019-03-27T09:22:32.071Z,9256.00
2019-03-27T09:23:32.056Z,9920.00
2019-03-27T09:24:32.084Z,11244.00
2019-03-27T09:25:32.080Z,10436.00
2019-03-27T09:26:32.057Z,10016.00
2019-03-27T09:27:31.997Z,9992.00
2019-03-27T09:28:32.038Z,10852.00
2019-03-27T09:29:31.987Z,10520.00
2019-03-27T09:30:31.982Z,8560.00
2019-03-27T09:31:44.083Z,7492.00
2019-03-27T09:32:32.959Z,7064.00
2019-03-27T09:33:31.943Z,7024.00
2019-03-27T09:34:31.916Z,7748.00
2019-03-27T09:35:31.951Z,7608.00
2019-03-27T09:36:31.986Z,6820.00
2019-03-27T09:37:31.925Z,6000.00
2019-03-27T09:38:31.935Z,6172.00
2019-03-27T09:39:31.922Z,6848.00
2019-03-27T09:40:31.878Z,7540.00
2019-03-27T09:41:31.865Z,9320.00
2019-03-27T09:42:31.871Z,9084.00
2019-03-27T09:43:31.950Z,8716.00
2019-03-27T09:44:31.848Z,8488.00
2019-03-27T09:45:31.854Z,8112.00
2019-03-27T09:46:31.808Z,8748.00
2019-03-27T09:47:34.517Z,8076.00
2019-03-27T09:48:31.817Z,7124.00
2019-03-27T09:49:31.814Z,7912.00
2019-03-27T09:50:31.797Z,7636.00
2019-03-27T09:51:31.769Z,7164.00
2019-03-27T09:52:31.894Z,7444.00
2019-03-27T09:53:31.774Z,7716.00
2019-03-27T09:54:31.757Z,6696.00
2019-03-27T09:55:31.835Z,5736.00
2019-03-27T09:56:31.804Z,5320.00
2019-03-27T09:57:31.812Z,5348.00
2019-03-27T09:58:31.736Z,6056.00
2019-03-27T09:59:31.717Z,6536.00
2019-03-27T10:00:31.692Z,6648.00
2019-03-27T10:01:31.708Z,7552.00
2019-03-27T10:02:31.731Z,10552.00
2019-03-27T10:03:31.785Z,11596.00
2019-03-27T10:04:32.219Z,11832.00
2019-03-27T10:05:31.818Z,12000.00
2019-03-27T10:06:31.646Z,13104.00
2019-03-27T10:07:31.619Z,10704.00
2019-03-27T10:08:31.866Z,8408.00
2019-03-27T10:09:31.558Z,9096.00
2019-03-27T10:10:31.560Z,9408.00
2019-03-27T10:11:31.590Z,8240.00
2019-03-27T10:12:31.539Z,8160.00
2019-03-27T10:13:31.556Z,9056.00
2019-03-27T10:14:31.639Z,9924.00
2019-03-27T10:15:31.483Z,11244.00
2019-03-27T10:16:31.510Z,9864.00
2019-03-27T10:17:31.501Z,9780.00
2019-03-27T10:18:31.481Z,9640.00
2019-03-27T10:19:31.505Z,11552.00
2019-03-27T10:20:31.486Z,9140.00
2019-03-27T10:21:31.438Z,9172.00
2019-03-27T10:22:31.423Z,9048.00
2019-03-27T10:23:31.409Z,9612.00
2019-03-27T10:24:31.414Z,9076.00
2019-03-27T10:25:31.490Z,9472.00
2019-03-27T10:26:31.434Z,11496.00
2019-03-27T10:27:31.424Z,11032.00
2019-03-27T10:28:31.436Z,11204.00
2019-03-27T10:29:31.430Z,8912.00
2019-03-27T10:30:31.400Z,7956.00
2019-03-27T10:31:31.365Z,8584.00
2019-03-27T10:32:31.348Z,8336.00
2019-03-27T10:33:31.310Z,6812.00
2019-03-27T10:34:31.327Z,6772.00
2019-03-27T10:35:31.325Z,8492.00
2019-03-27T10:36:31.311Z,11580.00
2019-03-27T10:37:31.261Z,13544.00
2019-03-27T10:38:31.254Z,10232.00
2019-03-27T10:39:31.262Z,9856.00
2019-03-27T10:40:31.242Z,8660.00
2019-03-27T10:41:31.244Z,8240.00
2019-03-27T10:42:31.226Z,9468.00
2019-03-27T10:43:31.189Z,10484.00
2019-03-27T10:44:31.193Z,12364.00
2019-03-27T10:45:31.256Z,12232.00
2019-03-27T10:46:31.728Z,11180.00
2019-03-27T10:47:31.281Z,11300.00
2019-03-27T10:48:31.186Z,10976.00
2019-03-27T10:49:34.236Z,11892.00
2019-03-27T10:50:31.131Z,13228.00
2019-03-27T10:51:31.222Z,11760.00
2019-03-27T10:52:31.139Z,9720.00
2019-03-27T10:53:31.154Z,9452.00
2019-03-27T10:54:31.142Z,12108.00
2019-03-27T10:55:34.386Z,11364.00
2019-03-27T10:56:31.068Z,8196.00
2019-03-27T10:57:31.133Z,5364.00
2019-03-27T10:58:31.077Z,4140.00
2019-03-27T10:59:31.038Z,3900.00
2019-03-27T11:00:31.063Z,4388.00
2019-03-27T11:01:31.031Z,5208.00
2019-03-27T11:02:31.059Z,5880.00
2019-03-27T11:03:31.087Z,6644.00
2019-03-27T11:04:30.992Z,6700.00
2019-03-27T11:05:30.986Z,6512.00
2019-03-27T11:06:30.984Z,6144.00
2019-03-27T11:07:31.031Z,6088.00
2019-03-27T11:08:30.958Z,5748.00
2019-03-27T11:09:31.021Z,5808.00
2019-03-27T11:10:30.952Z,6420.00
2019-03-27T11:11:30.926Z,8728.00
2019-03-27T11:12:30.930Z,11432.00
2019-03-27T11:13:34.165Z,10884.00
2019-03-27T11:14:37.922Z,8968.00
2019-03-27T11:15:31.889Z,7892.00
2019-03-27T11:16:30.857Z,7696.00
2019-03-27T11:17:30.850Z,7064.00
2019-03-27T11:18:30.858Z,6300.00
2019-03-27T11:19:33.442Z,6264.00
2019-03-27T11:20:31.735Z,7560.00
2019-03-27T11:21:30.813Z,7212.00
2019-03-27T11:22:30.818Z,6456.00
2019-03-27T11:23:30.842Z,6640.00
2019-03-27T11:24:30.772Z,8260.00
2019-03-27T11:25:33.113Z,10252.00
2019-03-27T11:26:30.755Z,8624.00
2019-03-27T11:27:30.835Z,7164.00
2019-03-27T11:28:30.768Z,7964.00
2019-03-27T11:29:30.790Z,9608.00
2019-03-27T11:30:30.739Z,10928.00
2019-03-27T11:31:30.694Z,9864.00
2019-03-27T11:32:30.684Z,8940.00
2019-03-27T11:33:30.672Z,9268.00
2019-03-27T11:34:30.717Z,11812.00
2019-03-27T11:35:30.655Z,13128.00
2019-03-27T11:36:30.649Z,10508.00
2019-03-27T11:37:30.691Z,11000.00
2019-03-27T11:38:30.628Z,9720.00
2019-03-27T11:39:30.673Z,8460.00
2019-03-27T11:40:30.631Z,7672.00
2019-03-27T11:41:30.633Z,7628.00
2019-03-27T11:42:30.618Z,7832.00
2019-03-27T11:43:30.568Z,7444.00
2019-03-27T11:44:30.614Z,8164.00
2019-03-27T11:45:30.613Z,8508.00
2019-03-27T11:46:32.271Z,7576.00
2019-03-27T11:47:30.539Z,8952.00
2019-03-27T11:48:30.497Z,8348.00
2019-03-27T11:49:30.503Z,7288.00
2019-03-27T11:50:43.703Z,7304.00
2019-03-27T11:51:31.531Z,6992.00
2019-03-27T11:52:30.495Z,7588.00
2019-03-27T11:53:30.554Z,9948.00
2019-03-27T11:54:30.555Z,12028.00
2019-03-27T11:55:30.505Z,16320.00
2019-03-27T11:56:30.434Z,17248.00
2019-03-27T11:57:30.484Z,14740.00
2019-03-27T11:58:30.449Z,11420.00
2019-03-27T11:59:30.425Z,8584.00
2019-03-27T12:00:30.387Z,7284.00
2019-03-27T12:01:40.473Z,6600.00
2019-03-27T12:02:31.384Z,6460.00
2019-03-27T12:03:30.365Z,7232.00
2019-03-27T12:04:30.387Z,6216.00
2019-03-27T12:05:30.348Z,5244.00
2019-03-27T12:06:30.354Z,6212.00
2019-03-27T12:07:30.311Z,8440.00
2019-03-27T12:08:30.302Z,8348.00
2019-03-27T12:09:30.336Z,6216.00
2019-03-27T12:10:30.337Z,5752.00
2019-03-27T12:11:30.291Z,6692.00
2019-03-27T12:12:30.288Z,6820.00
2019-03-27T12:13:30.273Z,6600.00
2019-03-27T12:14:30.336Z,7272.00
2019-03-27T12:15:30.303Z,6308.00
2019-03-27T12:16:30.283Z,6028.00
2019-03-27T12:17:30.277Z,6948.00
2019-03-27T12:18:32.008Z,7756.00
2019-03-27T12:19:30.187Z,7748.00
2019-03-27T12:20:30.267Z,8516.00
2019-03-27T12:21:30.187Z,8520.00
2019-03-27T12:22:30.209Z,7364.00
2019-03-27T12:23:30.155Z,6256.00
2019-03-27T12:24:30.186Z,6612.00
2019-03-27T12:25:30.132Z,7264.00
2019-03-27T12:26:30.138Z,7608.00
2019-03-27T12:27:30.110Z,7052.00
2019-03-27T12:28:30.126Z,6328.00
2019-03-27T12:29:30.092Z,5720.00
2019-03-27T12:30:30.067Z,5676.00
2019-03-27T12:31:30.107Z,6040.00
2019-03-27T12:32:30.076Z,7252.00